sensor_id;sensor_type;location;lat;lon;timestamp;P1;durP1;ratioP1;P2;durP2;ratioP2
36923;SDS011;22841;50.252;18.688;2022-08-19T00:02:13;14.35;;;10.00;;
36923;SDS011;22841;50.252;18.688;2022-08-19T00:04:39;14.25;;;11.02;;
36923;SDS011;22841;50.252;18.688;2022-08-19T00:07:06;17.10;;;11.07;;
36923;SDS011;22841;50.252;18.688;2022-08-19T00:09:32;12.45;;;10.30;;
36923;SDS011;22841;50.252;18.688;2022-08-19T00:11:59;13.43;;;10.55;;
36923;SDS011;22841;50.252;18.688;2022-08-19T00:14:26;17.92;;;10.70;;
36923;SDS011;22841;50.252;18.688;2022-08-19T00:16:56;16.20;;;10.40;;
36923;SDS011;22841;50.252;18.688;2022-08-19T00:19:23;15.25;;;10.75;;
36923;SDS011;22841;50.252;18.688;2022-08-19T00:21:51;19.77;;;11.57;;
36923;SDS011;22841;50.252;18.688;2022-08-19T00:24:18;19.35;;;10.40;;
36923;SDS011;22841;50.252;18.688;2022-08-19T00:26:44;15.40;;;10.82;;
36923;SDS011;22841;50.252;18.688;2022-08-19T00:29:11;15.63;;;10.73;;
36923;SDS011;22841;50.252;18.688;2022-08-19T00:31:39;15.05;;;10.68;;
36923;SDS011;22841;50.252;18.688;2022-08-19T00:34:07;15.48;;;10.85;;
36923;SDS011;22841;50.252;18.688;2022-08-19T00:36:33;15.95;;;10.43;;
36923;SDS011;22841;50.252;18.688;2022-08-19T00:38:59;16.13;;;10.15;;
36923;SDS011;22841;50.252;18.688;2022-08-19T00:41:26;12.68;;;10.82;;
36923;SDS011;22841;50.252;18.688;2022-08-19T00:44:00;14.52;;;10.32;;
36923;SDS011;22841;50.252;18.688;2022-08-19T00:46:42;16.33;;;11.45;;
36923;SDS011;22841;50.252;18.688;2022-08-19T00:49:12;18.58;;;11.05;;
36923;SDS011;22841;50.252;18.688;2022-08-19T00:51:44;21.73;;;10.38;;
36923;SDS011;22841;50.252;18.688;2022-08-19T00:54:13;16.03;;;10.53;;
36923;SDS011;22841;50.252;18.688;2022-08-19T00:56:41;12.80;;;10.95;;
36923;SDS011;22841;50.252;18.688;2022-08-19T00:59:09;15.65;;;11.40;;
36923;SDS011;22841;50.252;18.688;2022-08-19T01:01:36;12.45;;;10.35;;
36923;SDS011;22841;50.252;18.688;2022-08-19T01:04:06;17.42;;;11.68;;
36923;SDS011;22841;50.252;18.688;2022-08-19T01:06:32;15.15;;;10.80;;
36923;SDS011;22841;50.252;18.688;2022-08-19T01:09:00;15.57;;;11.55;;
36923;SDS011;22841;50.252;18.688;2022-08-19T01:11:27;14.13;;;11.20;;
36923;SDS011;22841;50.252;18.688;2022-08-19T01:13:55;12.48;;;10.27;;
36923;SDS011;22841;50.252;18.688;2022-08-19T01:16:22;15.80;;;11.23;;
36923;SDS011;22841;50.252;18.688;2022-08-19T01:18:50;18.52;;;12.43;;
36923;SDS011;22841;50.252;18.688;2022-08-19T01:21:20;16.45;;;12.10;;
36923;SDS011;22841;50.252;18.688;2022-08-19T01:23:58;13.57;;;11.38;;
36923;SDS011;22841;50.252;18.688;2022-08-19T01:26:24;19.52;;;11.27;;
36923;SDS011;22841;50.252;18.688;2022-08-19T01:28:53;21.27;;;11.90;;
36923;SDS011;22841;50.252;18.688;2022-08-19T01:31:24;18.60;;;12.10;;
36923;SDS011;22841;50.252;18.688;2022-08-19T01:33:52;17.73;;;12.73;;
36923;SDS011;22841;50.252;18.688;2022-08-19T01:36:24;18.13;;;11.93;;
36923;SDS011;22841;50.252;18.688;2022-08-19T01:38:55;17.88;;;12.70;;
36923;SDS011;22841;50.252;18.688;2022-08-19T01:41:22;17.77;;;12.23;;
36923;SDS011;22841;50.252;18.688;2022-08-19T01:43:49;17.05;;;12.65;;
36923;SDS011;22841;50.252;18.688;2022-08-19T01:46:17;17.80;;;12.00;;
36923;SDS011;22841;50.252;18.688;2022-08-19T01:48:44;15.32;;;12.27;;
36923;SDS011;22841;50.252;18.688;2022-08-19T01:51:11;23.08;;;12.85;;
36923;SDS011;22841;50.252;18.688;2022-08-19T01:53:38;21.77;;;12.75;;
36923;SDS011;22841;50.252;18.688;2022-08-19T01:56:05;17.70;;;12.60;;
36923;SDS011;22841;50.252;18.688;2022-08-19T01:58:36;15.05;;;12.50;;
36923;SDS011;22841;50.252;18.688;2022-08-19T02:01:06;16.05;;;12.63;;
36923;SDS011;22841;50.252;18.688;2022-08-19T02:03:33;18.77;;;14.20;;
36923;SDS011;22841;50.252;18.688;2022-08-19T02:06:02;18.95;;;13.95;;
36923;SDS011;22841;50.252;18.688;2022-08-19T02:08:31;20.20;;;13.60;;
36923;SDS011;22841;50.252;18.688;2022-08-19T02:11:00;19.15;;;14.20;;
36923;SDS011;22841;50.252;18.688;2022-08-19T02:13:26;20.30;;;14.48;;
36923;SDS011;22841;50.252;18.688;2022-08-19T02:15:52;21.13;;;13.65;;
36923;SDS011;22841;50.252;18.688;2022-08-19T02:18:18;18.98;;;13.90;;
36923;SDS011;22841;50.252;18.688;2022-08-19T02:20:45;24.92;;;15.52;;
36923;SDS011;22841;50.252;18.688;2022-08-19T02:23:13;21.25;;;14.40;;
36923;SDS011;22841;50.252;18.688;2022-08-19T02:25:41;20.05;;;14.23;;
36923;SDS011;22841;50.252;18.688;2022-08-19T02:28:12;24.55;;;14.95;;
36923;SDS011;22841;50.252;18.688;2022-08-19T02:30:38;17.88;;;13.73;;
36923;SDS011;22841;50.252;18.688;2022-08-19T02:33:06;22.10;;;14.15;;
36923;SDS011;22841;50.252;18.688;2022-08-19T02:35:33;21.02;;;14.82;;
36923;SDS011;22841;50.252;18.688;2022-08-19T02:37:59;19.42;;;13.75;;
36923;SDS011;22841;50.252;18.688;2022-08-19T02:40:50;21.83;;;14.70;;
36923;SDS011;22841;50.252;18.688;2022-08-19T02:43:18;20.88;;;14.50;;
36923;SDS011;22841;50.252;18.688;2022-08-19T02:45:47;21.70;;;14.60;;
36923;SDS011;22841;50.252;18.688;2022-08-19T02:48:17;20.35;;;14.43;;
36923;SDS011;22841;50.252;18.688;2022-08-19T02:50:44;19.58;;;13.80;;
36923;SDS011;22841;50.252;18.688;2022-08-19T02:53:11;21.05;;;15.05;;
36923;SDS011;22841;50.252;18.688;2022-08-19T02:55:45;18.58;;;13.88;;
36923;SDS011;22841;50.252;18.688;2022-08-19T02:58:15;20.83;;;15.45;;
36923;SDS011;22841;50.252;18.688;2022-08-19T03:00:45;23.50;;;15.27;;
36923;SDS011;22841;50.252;18.688;2022-08-19T03:03:14;19.00;;;14.43;;
36923;SDS011;22841;50.252;18.688;2022-08-19T03:05:41;19.17;;;14.88;;
36923;SDS011;22841;50.252;18.688;2022-08-19T03:08:08;20.92;;;15.27;;
36923;SDS011;22841;50.252;18.688;2022-08-19T03:10:41;20.67;;;15.30;;
36923;SDS011;22841;50.252;18.688;2022-08-19T03:13:13;18.45;;;13.85;;
36923;SDS011;22841;50.252;18.688;2022-08-19T03:15:42;26.42;;;15.18;;
36923;SDS011;22841;50.252;18.688;2022-08-19T03:18:09;26.13;;;16.10;;
36923;SDS011;22841;50.252;18.688;2022-08-19T03:20:42;20.15;;;14.32;;
36923;SDS011;22841;50.252;18.688;2022-08-19T03:23:10;22.15;;;15.07;;
36923;SDS011;22841;50.252;18.688;2022-08-19T03:25:42;26.42;;;16.17;;
36923;SDS011;22841;50.252;18.688;2022-08-19T03:28:11;17.52;;;14.32;;
36923;SDS011;22841;50.252;18.688;2022-08-19T03:30:39;22.52;;;15.48;;
36923;SDS011;22841;50.252;18.688;2022-08-19T03:33:09;19.70;;;15.57;;
36923;SDS011;22841;50.252;18.688;2022-08-19T03:35:37;23.23;;;15.93;;
36923;SDS011;22841;50.252;18.688;2022-08-19T03:38:04;25.02;;;16.60;;
36923;SDS011;22841;50.252;18.688;2022-08-19T03:40:31;20.50;;;15.07;;
36923;SDS011;22841;50.252;18.688;2022-08-19T03:43:01;23.40;;;16.25;;
36923;SDS011;22841;50.252;18.688;2022-08-19T03:45:28;20.58;;;15.68;;
36923;SDS011;22841;50.252;18.688;2022-08-19T03:47:54;18.25;;;15.10;;
36923;SDS011;22841;50.252;18.688;2022-08-19T03:50:20;24.20;;;15.35;;
36923;SDS011;22841;50.252;18.688;2022-08-19T03:52:50;25.20;;;14.95;;
36923;SDS011;22841;50.252;18.688;2022-08-19T03:55:17;20.52;;;15.27;;
36923;SDS011;22841;50.252;18.688;2022-08-19T03:57:44;21.65;;;15.10;;
36923;SDS011;22841;50.252;18.688;2022-08-19T04:00:11;17.88;;;13.95;;
36923;SDS011;22841;50.252;18.688;2022-08-19T04:02:38;24.38;;;15.70;;
36923;SDS011;22841;50.252;18.688;2022-08-19T04:05:05;23.00;;;14.57;;
36923;SDS011;22841;50.252;18.688;2022-08-19T04:07:33;23.88;;;15.27;;
36923;SDS011;22841;50.252;18.688;2022-08-19T04:09:59;28.88;;;15.98;;
36923;SDS011;22841;50.252;18.688;2022-08-19T04:12:25;19.35;;;13.70;;
36923;SDS011;22841;50.252;18.688;2022-08-19T04:14:52;24.98;;;18.08;;
36923;SDS011;22841;50.252;18.688;2022-08-19T04:17:18;23.60;;;16.27;;
36923;SDS011;22841;50.252;18.688;2022-08-19T04:19:44;19.77;;;15.15;;
36923;SDS011;22841;50.252;18.688;2022-08-19T04:22:10;28.90;;;14.60;;
36923;SDS011;22841;50.252;18.688;2022-08-19T04:24:36;27.48;;;15.63;;
36923;SDS011;22841;50.252;18.688;2022-08-19T04:27:03;18.15;;;14.73;;
36923;SDS011;22841;50.252;18.688;2022-08-19T04:29:30;18.70;;;15.98;;
36923;SDS011;22841;50.252;18.688;2022-08-19T04:31:57;24.38;;;16.35;;
36923;SDS011;22841;50.252;18.688;2022-08-19T04:34:25;20.08;;;15.18;;
36923;SDS011;22841;50.252;18.688;2022-08-19T04:36:54;23.05;;;15.05;;
36923;SDS011;22841;50.252;18.688;2022-08-19T04:39:29;23.05;;;16.20;;
36923;SDS011;22841;50.252;18.688;2022-08-19T04:42:15;28.05;;;15.32;;
36923;SDS011;22841;50.252;18.688;2022-08-19T04:45:02;20.92;;;14.98;;
36923;SDS011;22841;50.252;18.688;2022-08-19T04:47:29;25.38;;;15.75;;
36923;SDS011;22841;50.252;18.688;2022-08-19T04:49:56;24.50;;;15.52;;
36923;SDS011;22841;50.252;18.688;2022-08-19T04:52:23;22.92;;;15.95;;
36923;SDS011;22841;50.252;18.688;2022-08-19T04:54:49;21.20;;;15.73;;
36923;SDS011;22841;50.252;18.688;2022-08-19T04:57:15;21.80;;;15.50;;
36923;SDS011;22841;50.252;18.688;2022-08-19T04:59:41;18.38;;;15.25;;
36923;SDS011;22841;50.252;18.688;2022-08-19T05:02:08;20.55;;;16.42;;
36923;SDS011;22841;50.252;18.688;2022-08-19T05:04:35;24.50;;;15.90;;
36923;SDS011;22841;50.252;18.688;2022-08-19T05:07:04;25.40;;;16.50;;
36923;SDS011;22841;50.252;18.688;2022-08-19T05:09:31;38.25;;;16.70;;
36923;SDS011;22841;50.252;18.688;2022-08-19T05:11:59;22.50;;;15.00;;
36923;SDS011;22841;50.252;18.688;2022-08-19T05:14:25;19.42;;;16.05;;
36923;SDS011;22841;50.252;18.688;2022-08-19T05:16:51;25.77;;;15.90;;
36923;SDS011;22841;50.252;18.688;2022-08-19T05:19:17;21.30;;;15.70;;
36923;SDS011;22841;50.252;18.688;2022-08-19T05:22:02;50.05;;;17.88;;
36923;SDS011;22841;50.252;18.688;2022-08-19T05:24:46;24.63;;;15.40;;
36923;SDS011;22841;50.252;18.688;2022-08-19T05:27:12;21.35;;;15.43;;
36923;SDS011;22841;50.252;18.688;2022-08-19T05:29:39;28.25;;;16.48;;
36923;SDS011;22841;50.252;18.688;2022-08-19T05:32:05;22.02;;;15.15;;
36923;SDS011;22841;50.252;18.688;2022-08-19T05:34:36;20.97;;;15.97;;
36923;SDS011;22841;50.252;18.688;2022-08-19T05:37:03;22.92;;;14.65;;
36923;SDS011;22841;50.252;18.688;2022-08-19T05:39:31;25.10;;;16.00;;
36923;SDS011;22841;50.252;18.688;2022-08-19T05:42:01;32.13;;;15.18;;
36923;SDS011;22841;50.252;18.688;2022-08-19T05:46:57;32.65;;;16.80;;
36923;SDS011;22841;50.252;18.688;2022-08-19T05:49:25;28.80;;;15.18;;
36923;SDS011;22841;50.252;18.688;2022-08-19T05:51:52;32.60;;;15.73;;
36923;SDS011;22841;50.252;18.688;2022-08-19T05:54:20;27.60;;;15.05;;
36923;SDS011;22841;50.252;18.688;2022-08-19T05:56:48;36.47;;;15.65;;
36923;SDS011;22841;50.252;18.688;2022-08-19T05:59:16;30.08;;;15.00;;
36923;SDS011;22841;50.252;18.688;2022-08-19T06:01:43;26.83;;;15.50;;
36923;SDS011;22841;50.252;18.688;2022-08-19T06:04:12;21.67;;;14.73;;
36923;SDS011;22841;50.252;18.688;2022-08-19T06:06:44;27.10;;;15.35;;
36923;SDS011;22841;50.252;18.688;2022-08-19T06:09:11;29.17;;;14.60;;
36923;SDS011;22841;50.252;18.688;2022-08-19T06:14:29;20.30;;;13.23;;
36923;SDS011;22841;50.252;18.688;2022-08-19T06:16:58;25.80;;;14.55;;
36923;SDS011;22841;50.252;18.688;2022-08-19T06:19:25;17.80;;;13.38;;
36923;SDS011;22841;50.252;18.688;2022-08-19T06:21:52;26.92;;;14.60;;
36923;SDS011;22841;50.252;18.688;2022-08-19T06:24:19;34.72;;;14.50;;
36923;SDS011;22841;50.252;18.688;2022-08-19T06:26:50;28.17;;;14.30;;
36923;SDS011;22841;50.252;18.688;2022-08-19T06:29:19;22.42;;;15.05;;
36923;SDS011;22841;50.252;18.688;2022-08-19T06:31:50;28.52;;;13.93;;
36923;SDS011;22841;50.252;18.688;2022-08-19T06:34:18;39.15;;;15.68;;
36923;SDS011;22841;50.252;18.688;2022-08-19T06:36:45;32.33;;;13.43;;
36923;SDS011;22841;50.252;18.688;2022-08-19T06:39:17;30.10;;;13.40;;
36923;SDS011;22841;50.252;18.688;2022-08-19T06:41:46;18.10;;;12.90;;
36923;SDS011;22841;50.252;18.688;2022-08-19T06:44:14;20.38;;;13.77;;
36923;SDS011;22841;50.252;18.688;2022-08-19T06:46:41;20.85;;;13.13;;
36923;SDS011;22841;50.252;18.688;2022-08-19T06:49:09;22.13;;;13.00;;
36923;SDS011;22841;50.252;18.688;2022-08-19T06:51:40;23.67;;;13.02;;
36923;SDS011;22841;50.252;18.688;2022-08-19T06:54:07;24.20;;;12.82;;
36923;SDS011;22841;50.252;18.688;2022-08-19T06:56:34;18.25;;;12.82;;
36923;SDS011;22841;50.252;18.688;2022-08-19T06:59:05;22.55;;;13.57;;
36923;SDS011;22841;50.252;18.688;2022-08-19T07:01:34;22.70;;;13.95;;
36923;SDS011;22841;50.252;18.688;2022-08-19T07:04:11;22.88;;;12.90;;
36923;SDS011;22841;50.252;18.688;2022-08-19T07:06:39;85.03;;;15.77;;
36923;SDS011;22841;50.252;18.688;2022-08-19T07:09:06;20.02;;;12.93;;
36923;SDS011;22841;50.252;18.688;2022-08-19T07:11:33;19.35;;;12.35;;
36923;SDS011;22841;50.252;18.688;2022-08-19T07:14:00;31.58;;;12.27;;
36923;SDS011;22841;50.252;18.688;2022-08-19T07:16:27;26.83;;;13.38;;
36923;SDS011;22841;50.252;18.688;2022-08-19T07:18:53;24.83;;;12.90;;
36923;SDS011;22841;50.252;18.688;2022-08-19T07:21:21;30.10;;;13.80;;
36923;SDS011;22841;50.252;18.688;2022-08-19T07:23:53;21.90;;;11.95;;
36923;SDS011;22841;50.252;18.688;2022-08-19T07:26:22;27.00;;;12.75;;
36923;SDS011;22841;50.252;18.688;2022-08-19T07:28:54;22.77;;;12.02;;
36923;SDS011;22841;50.252;18.688;2022-08-19T07:31:22;21.33;;;12.57;;
36923;SDS011;22841;50.252;18.688;2022-08-19T07:33:50;20.30;;;12.30;;
36923;SDS011;22841;50.252;18.688;2022-08-19T07:36:19;17.30;;;11.48;;
36923;SDS011;22841;50.252;18.688;2022-08-19T07:38:51;21.25;;;11.20;;
36923;SDS011;22841;50.252;18.688;2022-08-19T07:41:20;24.00;;;10.85;;
36923;SDS011;22841;50.252;18.688;2022-08-19T07:46:17;15.18;;;11.40;;
36923;SDS011;22841;50.252;18.688;2022-08-19T07:48:46;19.38;;;10.80;;
36923;SDS011;22841;50.252;18.688;2022-08-19T07:51:14;23.60;;;10.77;;
36923;SDS011;22841;50.252;18.688;2022-08-19T07:53:42;16.80;;;11.73;;
36923;SDS011;22841;50.252;18.688;2022-08-19T07:56:10;26.52;;;11.57;;
36923;SDS011;22841;50.252;18.688;2022-08-19T07:58:38;23.10;;;11.43;;
36923;SDS011;22841;50.252;18.688;2022-08-19T08:01:10;17.35;;;11.27;;
36923;SDS011;22841;50.252;18.688;2022-08-19T08:03:39;28.02;;;11.20;;
36923;SDS011;22841;50.252;18.688;2022-08-19T08:06:24;31.92;;;11.90;;
36923;SDS011;22841;50.252;18.688;2022-08-19T08:09:09;24.80;;;10.45;;
36923;SDS011;22841;50.252;18.688;2022-08-19T08:11:51;15.63;;;10.35;;
36923;SDS011;22841;50.252;18.688;2022-08-19T08:14:45;15.20;;;8.50;;
36923;SDS011;22841;50.252;18.688;2022-08-19T08:17:14;19.65;;;8.60;;
36923;SDS011;22841;50.252;18.688;2022-08-19T08:19:41;12.10;;;7.90;;
36923;SDS011;22841;50.252;18.688;2022-08-19T08:22:08;37.30;;;10.48;;
36923;SDS011;22841;50.252;18.688;2022-08-19T08:24:56;16.95;;;9.00;;
36923;SDS011;22841;50.252;18.688;2022-08-19T08:27:23;21.58;;;8.82;;
36923;SDS011;22841;50.252;18.688;2022-08-19T08:29:50;23.38;;;9.30;;
36923;SDS011;22841;50.252;18.688;2022-08-19T08:32:16;16.15;;;8.57;;
36923;SDS011;22841;50.252;18.688;2022-08-19T08:34:42;15.30;;;9.80;;
36923;SDS011;22841;50.252;18.688;2022-08-19T08:37:08;15.10;;;9.27;;
36923;SDS011;22841;50.252;18.688;2022-08-19T08:39:34;19.50;;;10.38;;
36923;SDS011;22841;50.252;18.688;2022-08-19T08:42:09;35.97;;;10.23;;
36923;SDS011;22841;50.252;18.688;2022-08-19T08:44:43;15.90;;;8.23;;
36923;SDS011;22841;50.252;18.688;2022-08-19T08:47:29;10.80;;;8.85;;
36923;SDS011;22841;50.252;18.688;2022-08-19T08:52:39;16.25;;;9.73;;
36923;SDS011;22841;50.252;18.688;2022-08-19T08:55:12;15.65;;;9.15;;
36923;SDS011;22841;50.252;18.688;2022-08-19T09:00:18;19.35;;;8.70;;
36923;SDS011;22841;50.252;18.688;2022-08-19T09:02:56;14.60;;;8.60;;
36923;SDS011;22841;50.252;18.688;2022-08-19T09:05:24;14.70;;;8.77;;
36923;SDS011;22841;50.252;18.688;2022-08-19T09:08:12;11.23;;;9.60;;
36923;SDS011;22841;50.252;18.688;2022-08-19T09:10:50;27.52;;;9.38;;
36923;SDS011;22841;50.252;18.688;2022-08-19T09:13:33;25.02;;;9.93;;
36923;SDS011;22841;50.252;18.688;2022-08-19T09:16:05;11.68;;;8.43;;
36923;SDS011;22841;50.252;18.688;2022-08-19T09:18:44;16.48;;;9.05;;
36923;SDS011;22841;50.252;18.688;2022-08-19T09:21:22;52.38;;;11.45;;
36923;SDS011;22841;50.252;18.688;2022-08-19T09:23:52;15.60;;;9.25;;
36923;SDS011;22841;50.252;18.688;2022-08-19T09:26:21;16.25;;;8.73;;
36923;SDS011;22841;50.252;18.688;2022-08-19T09:28:49;14.30;;;9.13;;
36923;SDS011;22841;50.252;18.688;2022-08-19T09:31:18;16.83;;;8.75;;
36923;SDS011;22841;50.252;18.688;2022-08-19T09:33:47;24.08;;;9.88;;
36923;SDS011;22841;50.252;18.688;2022-08-19T09:36:15;23.05;;;8.90;;
36923;SDS011;22841;50.252;18.688;2022-08-19T09:38:44;12.32;;;8.70;;
36923;SDS011;22841;50.252;18.688;2022-08-19T09:41:15;15.32;;;8.52;;
36923;SDS011;22841;50.252;18.688;2022-08-19T09:43:46;14.85;;;8.70;;
36923;SDS011;22841;50.252;18.688;2022-08-19T09:46:14;13.48;;;7.82;;
36923;SDS011;22841;50.252;18.688;2022-08-19T09:48:43;14.65;;;8.45;;
36923;SDS011;22841;50.252;18.688;2022-08-19T09:51:13;27.92;;;9.07;;
36923;SDS011;22841;50.252;18.688;2022-08-19T09:53:42;28.02;;;9.43;;
36923;SDS011;22841;50.252;18.688;2022-08-19T09:56:12;40.17;;;10.70;;
36923;SDS011;22841;50.252;18.688;2022-08-19T09:58:39;26.63;;;9.88;;
36923;SDS011;22841;50.252;18.688;2022-08-19T10:01:06;19.15;;;9.50;;
36923;SDS011;22841;50.252;18.688;2022-08-19T10:03:33;15.90;;;8.20;;
36923;SDS011;22841;50.252;18.688;2022-08-19T10:06:01;11.35;;;8.65;;
36923;SDS011;22841;50.252;18.688;2022-08-19T10:08:31;12.57;;;7.93;;
36923;SDS011;22841;50.252;18.688;2022-08-19T10:11:02;12.15;;;7.78;;
36923;SDS011;22841;50.252;18.688;2022-08-19T10:13:30;16.52;;;8.70;;
36923;SDS011;22841;50.252;18.688;2022-08-19T10:16:05;13.93;;;8.85;;
36923;SDS011;22841;50.252;18.688;2022-08-19T10:18:33;13.73;;;8.40;;
36923;SDS011;22841;50.252;18.688;2022-08-19T10:21:05;11.60;;;8.48;;
36923;SDS011;22841;50.252;18.688;2022-08-19T10:23:34;15.25;;;7.90;;
36923;SDS011;22841;50.252;18.688;2022-08-19T10:26:02;13.57;;;9.10;;
36923;SDS011;22841;50.252;18.688;2022-08-19T10:28:32;14.52;;;8.90;;
36923;SDS011;22841;50.252;18.688;2022-08-19T10:31:03;11.75;;;8.20;;
36923;SDS011;22841;50.252;18.688;2022-08-19T10:33:31;20.45;;;8.65;;
36923;SDS011;22841;50.252;18.688;2022-08-19T10:36:04;12.63;;;8.20;;
36923;SDS011;22841;50.252;18.688;2022-08-19T10:38:33;17.60;;;8.57;;
36923;SDS011;22841;50.252;18.688;2022-08-19T10:41:06;13.90;;;8.98;;
36923;SDS011;22841;50.252;18.688;2022-08-19T10:43:40;20.13;;;8.60;;
36923;SDS011;22841;50.252;18.688;2022-08-19T10:46:08;19.65;;;8.57;;
36923;SDS011;22841;50.252;18.688;2022-08-19T10:48:36;11.52;;;7.53;;
36923;SDS011;22841;50.252;18.688;2022-08-19T10:51:02;10.18;;;7.82;;
36923;SDS011;22841;50.252;18.688;2022-08-19T10:53:49;24.88;;;8.57;;
36923;SDS011;22841;50.252;18.688;2022-08-19T10:56:16;15.52;;;7.78;;
36923;SDS011;22841;50.252;18.688;2022-08-19T10:59:01;10.75;;;7.18;;
36923;SDS011;22841;50.252;18.688;2022-08-19T11:01:29;13.48;;;7.95;;
36923;SDS011;22841;50.252;18.688;2022-08-19T11:03:57;17.15;;;8.85;;
36923;SDS011;22841;50.252;18.688;2022-08-19T11:06:25;15.00;;;7.55;;
36923;SDS011;22841;50.252;18.688;2022-08-19T11:08:51;17.52;;;8.95;;
36923;SDS011;22841;50.252;18.688;2022-08-19T11:11:20;19.88;;;8.65;;
36923;SDS011;22841;50.252;18.688;2022-08-19T11:13:47;18.55;;;8.20;;
36923;SDS011;22841;50.252;18.688;2022-08-19T11:16:19;14.63;;;7.90;;
36923;SDS011;22841;50.252;18.688;2022-08-19T11:18:50;14.75;;;8.20;;
36923;SDS011;22841;50.252;18.688;2022-08-19T11:21:25;13.68;;;8.32;;
36923;SDS011;22841;50.252;18.688;2022-08-19T11:24:03;9.10;;;7.38;;
36923;SDS011;22841;50.252;18.688;2022-08-19T11:26:31;19.63;;;8.43;;
36923;SDS011;22841;50.252;18.688;2022-08-19T11:28:59;13.48;;;7.88;;
36923;SDS011;22841;50.252;18.688;2022-08-19T11:31:26;31.83;;;7.57;;
36923;SDS011;22841;50.252;18.688;2022-08-19T11:33:57;15.15;;;7.88;;
36923;SDS011;22841;50.252;18.688;2022-08-19T11:36:25;13.13;;;7.70;;
36923;SDS011;22841;50.252;18.688;2022-08-19T11:38:52;11.45;;;7.28;;
36923;SDS011;22841;50.252;18.688;2022-08-19T11:41:19;16.75;;;6.93;;
36923;SDS011;22841;50.252;18.688;2022-08-19T11:43:48;10.27;;;7.28;;
36923;SDS011;22841;50.252;18.688;2022-08-19T11:46:15;20.13;;;7.28;;
36923;SDS011;22841;50.252;18.688;2022-08-19T11:48:42;14.57;;;7.57;;
36923;SDS011;22841;50.252;18.688;2022-08-19T11:51:10;8.55;;;7.00;;
36923;SDS011;22841;50.252;18.688;2022-08-19T11:53:39;17.65;;;7.85;;
36923;SDS011;22841;50.252;18.688;2022-08-19T11:56:06;16.00;;;6.90;;
36923;SDS011;22841;50.252;18.688;2022-08-19T11:58:34;29.45;;;8.57;;
36923;SDS011;22841;50.252;18.688;2022-08-19T12:01:01;19.48;;;7.20;;
36923;SDS011;22841;50.252;18.688;2022-08-19T12:03:32;18.88;;;6.65;;
36923;SDS011;22841;50.252;18.688;2022-08-19T12:06:03;16.73;;;7.07;;
36923;SDS011;22841;50.252;18.688;2022-08-19T12:08:38;14.13;;;7.63;;
36923;SDS011;22841;50.252;18.688;2022-08-19T12:11:05;12.40;;;6.78;;
36923;SDS011;22841;50.252;18.688;2022-08-19T12:13:33;10.50;;;6.40;;
36923;SDS011;22841;50.252;18.688;2022-08-19T12:16:00;15.77;;;6.93;;
36923;SDS011;22841;50.252;18.688;2022-08-19T12:18:32;13.43;;;6.25;;
36923;SDS011;22841;50.252;18.688;2022-08-19T12:20:58;34.33;;;7.63;;
36923;SDS011;22841;50.252;18.688;2022-08-19T12:23:26;9.88;;;6.50;;
36923;SDS011;22841;50.252;18.688;2022-08-19T12:25:53;16.67;;;6.57;;
36923;SDS011;22841;50.252;18.688;2022-08-19T12:28:23;11.13;;;6.53;;
36923;SDS011;22841;50.252;18.688;2022-08-19T12:30:50;19.13;;;6.55;;
36923;SDS011;22841;50.252;18.688;2022-08-19T12:33:17;23.55;;;7.20;;
36923;SDS011;22841;50.252;18.688;2022-08-19T12:35:45;37.88;;;8.63;;
36923;SDS011;22841;50.252;18.688;2022-08-19T12:38:12;17.85;;;7.35;;
36923;SDS011;22841;50.252;18.688;2022-08-19T12:40:40;10.38;;;6.50;;
36923;SDS011;22841;50.252;18.688;2022-08-19T12:43:07;10.82;;;6.18;;
36923;SDS011;22841;50.252;18.688;2022-08-19T12:45:33;9.93;;;6.15;;
36923;SDS011;22841;50.252;18.688;2022-08-19T12:47:59;10.63;;;6.82;;
36923;SDS011;22841;50.252;18.688;2022-08-19T12:50:26;14.02;;;6.70;;
36923;SDS011;22841;50.252;18.688;2022-08-19T12:52:52;17.90;;;7.05;;
36923;SDS011;22841;50.252;18.688;2022-08-19T12:55:18;13.55;;;7.45;;
36923;SDS011;22841;50.252;18.688;2022-08-19T12:57:45;9.43;;;6.80;;
36923;SDS011;22841;50.252;18.688;2022-08-19T13:00:12;40.22;;;9.10;;
36923;SDS011;22841;50.252;18.688;2022-08-19T13:02:43;7.97;;;6.33;;
36923;SDS011;22841;50.252;18.688;2022-08-19T13:05:16;17.95;;;7.10;;
36923;SDS011;22841;50.252;18.688;2022-08-19T13:07:49;19.13;;;6.82;;
36923;SDS011;22841;50.252;18.688;2022-08-19T13:10:19;16.40;;;6.65;;
36923;SDS011;22841;50.252;18.688;2022-08-19T13:12:46;24.42;;;7.30;;
36923;SDS011;22841;50.252;18.688;2022-08-19T13:15:15;20.65;;;7.13;;
36923;SDS011;22841;50.252;18.688;2022-08-19T13:17:45;42.22;;;7.88;;
36923;SDS011;22841;50.252;18.688;2022-08-19T13:20:14;17.55;;;6.50;;
36923;SDS011;22841;50.252;18.688;2022-08-19T13:22:41;13.43;;;6.40;;
36923;SDS011;22841;50.252;18.688;2022-08-19T13:25:08;9.98;;;6.63;;
36923;SDS011;22841;50.252;18.688;2022-08-19T13:27:35;22.50;;;7.05;;
36923;SDS011;22841;50.252;18.688;2022-08-19T13:30:02;10.40;;;6.38;;
36923;SDS011;22841;50.252;18.688;2022-08-19T13:32:49;14.15;;;6.90;;
36923;SDS011;22841;50.252;18.688;2022-08-19T13:35:33;12.88;;;6.40;;
36923;SDS011;22841;50.252;18.688;2022-08-19T13:37:59;15.55;;;6.70;;
36923;SDS011;22841;50.252;18.688;2022-08-19T13:40:30;15.55;;;6.65;;
36923;SDS011;22841;50.252;18.688;2022-08-19T13:42:59;9.85;;;6.35;;
36923;SDS011;22841;50.252;18.688;2022-08-19T13:45:27;11.70;;;6.65;;
36923;SDS011;22841;50.252;18.688;2022-08-19T13:47:55;15.05;;;6.68;;
36923;SDS011;22841;50.252;18.688;2022-08-19T13:50:23;11.80;;;6.43;;
36923;SDS011;22841;50.252;18.688;2022-08-19T13:52:52;13.75;;;6.43;;
36923;SDS011;22841;50.252;18.688;2022-08-19T13:55:19;15.32;;;6.55;;
36923;SDS011;22841;50.252;18.688;2022-08-19T13:57:46;22.10;;;7.32;;
36923;SDS011;22841;50.252;18.688;2022-08-19T14:00:17;14.57;;;7.60;;
36923;SDS011;22841;50.252;18.688;2022-08-19T14:02:45;22.00;;;6.93;;
36923;SDS011;22841;50.252;18.688;2022-08-19T14:05:12;16.45;;;7.40;;
36923;SDS011;22841;50.252;18.688;2022-08-19T14:07:40;35.15;;;8.23;;
36923;SDS011;22841;50.252;18.688;2022-08-19T14:10:08;17.17;;;7.68;;
36923;SDS011;22841;50.252;18.688;2022-08-19T14:12:36;25.92;;;7.40;;
36923;SDS011;22841;50.252;18.688;2022-08-19T14:15:03;24.10;;;7.20;;
36923;SDS011;22841;50.252;18.688;2022-08-19T14:17:31;31.10;;;7.63;;
36923;SDS011;22841;50.252;18.688;2022-08-19T14:20:04;21.67;;;8.10;;
36923;SDS011;22841;50.252;18.688;2022-08-19T14:22:38;17.98;;;7.70;;
36923;SDS011;22841;50.252;18.688;2022-08-19T14:25:09;14.65;;;6.28;;
36923;SDS011;22841;50.252;18.688;2022-08-19T14:27:37;16.90;;;7.82;;
36923;SDS011;22841;50.252;18.688;2022-08-19T14:30:09;16.25;;;5.88;;
36923;SDS011;22841;50.252;18.688;2022-08-19T14:32:37;14.80;;;6.53;;
36923;SDS011;22841;50.252;18.688;2022-08-19T14:35:03;16.83;;;7.10;;
36923;SDS011;22841;50.252;18.688;2022-08-19T14:37:30;8.65;;;6.85;;
36923;SDS011;22841;50.252;18.688;2022-08-19T14:39:58;13.60;;;6.78;;